Airfield :
LOGIN :

Register | Disclaimer

   EN    FR    IT 

 










Legend :    VFR   Marginal VFR   IFR   Intensive IFR   Very Intensive IFR
Visi :
Ceiling :
>= 8 km
>= 3000ft
5 to 8 km
1000 to 3000 ft
1500m to 5 km
500 to 1000 ft
800 to 1500m
200 to 500 ft
< 800m
< 200 ft
Symbols :   Thunderstorms  Fog  Heavy snow  Heavy precipitations  Wind > 20 kt
SIGMETs :     Misc.  Thunderstorms  Icing  Turbulence  Mountain Waves  Volcanic Ashes






- Airport Elevation : 162 ft
- IATA code : BOD


LFBD - Bordeaux / Merignac

CURRENT METAR :
  • 102030Z AUTO 16006KT CAVOK 09/05 Q1021 NOSIG

EXPIRED METARs :
  • 102000Z AUTO 15006KT CAVOK 09/06 Q1022 NOSIG
  • 101930Z AUTO 15007KT CAVOK 09/06 Q1022 NOSIG
  • 101900Z AUTO 15005KT CAVOK 09/06 Q1023 NOSIG
  • 101830Z AUTO 14005KT CAVOK 09/06 Q1023 NOSIG
  • 101800Z AUTO 13007KT CAVOK 09/07 Q1023 NOSIG

TAF TAF LFBD
Valid from the 10 at 18:00 until the 12 at 00:00 UTC


101700Z 1018/1124 17005KT CAVOK TX12/1113Z TN06/1106Z
BECMG 1022/1024 OVC030
BECMG 1104/1106 25010KT 3000 RA BKN008 OVC020
BECMG 1109/1111 9999 NSW SCT030
TEMPO 1114/1122 29015G25KT 4000 SHRA BKN025TCU
ATIS : +33 5 57 92 81 04



MET'MAP, your aeronautical weather chart ! - Copyright ORBIFLY December 2007 - Disclaimer

ORBIFLY MET'MAP TEAM :

Programming & Development : Alexandra Zaïnal
Concept & original design : Baudouin d'Aumeries
Assistance for programming : Marc-Olivier Méhu
Technical & hardware support : Manuel Goepfert

Contact : metmap@orbifly.com




SOURCES & CREDITS :

   NOAA